Time;durP1;ratioP1;P1;durP2;ratioP2;P2;SDS_P1;SDS_P2;PMS_P1;PMS_P2;Temp;Humidity;BMP_temperature;BMP_pressure;BME280_temperature;BME280_humidity;BME280_pressure;Samples;Min_cycle;Max_cycle;Signal;HPM_P1;HPM_P2
2022/01/18 00:01:13;;;;;;;44.70;7.47;;;6.70;99.90;;;;;;5042463;28;20211;-86
2022/01/18 00:03:39;;;;;;;43.38;7.38;;;7.10;99.90;;;;;;5032087;28;20090;-85
2022/01/18 00:06:05;;;;;;;49.92;7.97;;;6.60;99.90;;;;;;5022173;28;20072;-85
2022/01/18 00:08:30;;;;;;;37.53;7.05;;;6.60;99.90;;;;;;5035667;28;20045;-85
2022/01/18 00:10:56;;;;;;;47.90;7.78;;;7.80;99.90;;;;;;5042081;28;20044;-85
2022/01/18 00:13:38;;;;;;;39.10;7.35;;;7.10;99.90;;;;;;5012162;28;20055;-85
2022/01/18 00:16:26;;;;;;;40.67;6.45;;;7.50;99.90;;;;;;5056358;28;20033;-85
2022/01/18 00:18:53;;;;;;;45.45;7.13;;;7.90;99.90;;;;;;5054168;28;20040;-85
2022/01/18 00:21:30;;;;;;;40.38;8.07;;;6.30;99.90;;;;;;5058627;28;20075;-85
2022/01/18 00:23:58;;;;;;;35.20;7.50;;;6.30;99.90;;;;;;5040457;28;20056;-85
2022/01/18 00:26:28;;;;;;;39.60;7.38;;;6.30;99.90;;;;;;5053669;28;20647;-86
2022/01/18 00:28:59;;;;;;;53.40;6.90;;;7.50;99.90;;;;;;5010170;28;20051;-85
2022/01/18 00:34:16;;;;;;;38.72;5.93;;;7.60;99.90;;;;;;5034628;28;20282;-84
2022/01/18 00:37:33;;;;;;;46.50;7.47;;;6.50;99.90;;;;;;5032756;28;20049;-85
2022/01/18 00:39:28;;;;;;;41.75;6.53;;;6.20;99.90;;;;;;5019257;28;20041;-85
2022/01/18 00:41:54;;;;;;;34.17;6.43;;;6.20;99.90;;;;;;5007957;28;20048;-85
2022/01/18 00:44:20;;;;;;;43.28;6.85;;;6.20;99.90;;;;;;5034808;28;20049;-85
2022/01/18 00:46:46;;;;;;;31.55;6.47;;;6.20;99.90;;;;;;5007808;28;20037;-85
2022/01/18 00:49:13;;;;;;;50.42;7.35;;;7.80;99.90;;;;;;5030651;28;20409;-85
2022/01/18 00:51:41;;;;;;;37.20;6.85;;;6.10;99.90;;;;;;5009828;28;20069;-86
2022/01/18 00:54:09;;;;;;;35.30;6.93;;;6.20;99.90;;;;;;5037064;28;20111;-86
2022/01/18 00:56:40;;;;;;;30.38;5.93;;;6.50;99.90;;;;;;5032890;28;20033;-85
2022/01/18 00:59:07;;;;;;;42.58;7.00;;;7.40;99.90;;;;;;5024412;28;20083;-85
2022/01/18 01:01:35;;;;;;;40.10;6.65;;;6.80;99.90;;;;;;4989512;28;20045;-85
2022/01/18 01:04:03;;;;;;;38.15;7.43;;;6.80;99.90;;;;;;5022726;28;20041;-85
2022/01/18 01:06:31;;;;;;;44.05;7.05;;;6.00;99.90;;;;;;5017240;28;20041;-85
2022/01/18 01:08:57;;;;;;;39.90;7.05;;;6.00;99.90;;;;;;5009317;28;20475;-85
2022/01/18 01:11:23;;;;;;;40.78;6.63;;;6.00;99.90;;;;;;5027247;28;20076;-85
2022/01/18 01:13:52;;;;;;;44.85;7.20;;;6.00;99.90;;;;;;5026123;28;20549;-86
2022/01/18 01:19:21;;;;;;;41.63;8.15;;;7.30;99.90;;;;;;5035915;28;20102;-86
2022/01/18 01:35:39;;;;;;;45.97;6.75;;;6.20;99.90;;;;;;5040472;28;20544;-85
2022/01/18 01:43:49;;;;;;;40.65;6.25;;;6.00;99.90;;;;;;5037388;28;20468;-85
2022/01/18 01:46:17;;;;;;;46.28;6.78;;;6.80;99.90;;;;;;5033013;28;20063;-86
2022/01/18 01:48:45;;;;;;;34.33;5.90;;;7.50;99.90;;;;;;5018032;28;20048;-85
2022/01/18 01:51:11;;;;;;;46.55;7.10;;;6.00;99.90;;;;;;5018827;28;20612;-85
2022/01/18 01:53:37;;;;;;;41.05;6.53;;;6.00;99.90;;;;;;5027948;28;20056;-85
2022/01/18 01:56:04;;;;;;;35.40;5.38;;;6.00;99.90;;;;;;4996333;28;20072;-85
2022/01/18 01:58:30;;;;;;;43.60;6.05;;;6.00;99.90;;;;;;5030933;28;20047;-85
2022/01/18 02:01:01;;;;;;;43.17;6.78;;;6.00;99.90;;;;;;5038734;28;20049;-85
2022/01/18 02:03:27;;;;;;;38.80;6.10;;;6.00;99.90;;;;;;5027304;28;20755;-85
2022/01/18 02:05:53;;;;;;;38.58;5.97;;;7.60;99.90;;;;;;5015551;28;20159;-85
2022/01/18 02:08:20;;;;;;;39.42;5.80;;;6.80;99.90;;;;;;5033783;28;20105;-86
2022/01/18 02:10:45;;;;;;;35.00;6.20;;;7.10;99.90;;;;;;5024453;28;20041;-85
2022/01/18 02:13:12;;;;;;;32.05;5.40;;;6.10;99.90;;;;;;5010407;28;20060;-85
2022/01/18 02:15:45;;;;;;;39.08;5.65;;;7.20;99.90;;;;;;5037582;28;20037;-85
2022/01/18 02:23:39;;;;;;;37.75;5.35;;;6.30;99.90;;;;;;5029074;28;20048;-85
2022/01/18 02:26:05;;;;;;;34.88;5.18;;;8.10;99.90;;;;;;5008998;28;20041;-85
2022/01/18 02:28:31;;;;;;;33.53;5.13;;;6.30;99.90;;;;;;5024910;28;20064;-85
2022/01/18 02:30:57;;;;;;;28.75;5.32;;;6.30;99.90;;;;;;5036017;28;20452;-85
2022/01/18 02:33:23;;;;;;;34.28;4.38;;;6.30;99.90;;;;;;5002374;28;20041;-85
2022/01/18 02:35:50;;;;;;;29.50;4.88;;;6.30;99.90;;;;;;5004573;28;20041;-85
2022/01/18 02:38:16;;;;;;;39.80;6.20;;;6.40;99.90;;;;;;5034780;28;20036;-85
2022/01/18 02:40:41;;;;;;;32.35;4.63;;;6.90;99.90;;;;;;5023311;28;20040;-84
2022/01/18 02:45:55;;;;;;;31.33;4.68;;;7.00;99.90;;;;;;5022160;28;20502;-85
2022/01/18 02:48:21;;;;;;;29.85;5.07;;;6.90;99.90;;;;;;5032055;28;20049;-85
2022/01/18 02:50:47;;;;;;;29.02;5.60;;;7.10;99.90;;;;;;5031666;28;20127;-85
2022/01/18 02:53:16;;;;;;;34.53;6.13;;;7.50;99.90;;;;;;5032088;28;20398;-85
2022/01/18 02:55:43;;;;;;;36.90;4.70;;;6.40;99.90;;;;;;5024109;28;20362;-85
2022/01/18 02:58:10;;;;;;;24.27;4.30;;;7.10;99.90;;;;;;5041813;28;20071;-85
2022/01/18 03:03:11;;;;;;;30.55;5.00;;;6.80;99.90;;;;;;4989781;28;20451;-85
2022/01/18 03:03:26;;;;;;;30.63;4.82;;;6.50;99.90;;;;;;5028905;28;20053;-85
2022/01/18 03:05:53;;;;;;;30.55;4.65;;;7.40;99.90;;;;;;5003046;28;20075;-85
2022/01/18 03:08:19;;;;;;;28.20;4.90;;;;;;;;;;5028475;28;20136;-85
2022/01/18 03:10:44;;;;;;;29.25;5.38;;;6.50;99.90;;;;;;5035629;28;20655;-85
2022/01/18 03:13:10;;;;;;;35.78;5.60;;;7.50;99.90;;;;;;5029505;28;20386;-85
2022/01/18 03:15:36;;;;;;;29.73;5.00;;;6.60;99.90;;;;;;5014428;28;20041;-85
2022/01/18 03:18:07;;;;;;;26.70;4.35;;;7.60;99.90;;;;;;5033948;28;20042;-85
2022/01/18 03:20:33;;;;;;;23.85;4.00;;;6.60;99.90;;;;;;5049562;28;20489;-86
2022/01/18 03:22:59;;;;;;;27.63;4.10;;;7.40;99.90;;;;;;5027596;28;20048;-84
2022/01/18 03:28:07;;;;;;;16.83;3.80;;;6.60;99.90;;;;;;5015765;28;20045;-85
2022/01/18 03:30:42;;;;;;;26.83;4.40;;;7.30;99.90;;;;;;5018578;28;20036;-85
2022/01/18 03:33:10;;;;;;;23.88;4.53;;;6.60;99.90;;;;;;5015611;28;20041;-85
2022/01/18 03:35:36;;;;;;;23.63;4.75;;;7.40;99.90;;;;;;5009893;28;20409;-85
2022/01/18 03:38:02;;;;;;;22.88;3.75;;;7.60;99.90;;;;;;5025907;28;20032;-85
2022/01/18 03:40:29;;;;;;;26.55;4.72;;;6.60;99.90;;;;;;5026152;28;20032;-85
2022/01/18 03:42:55;;;;;;;31.92;4.65;;;6.60;99.90;;;;;;5040871;28;20087;-85
2022/01/18 03:45:26;;;;;;;21.83;4.40;;;8.00;99.90;;;;;;5034495;28;20037;-85
2022/01/18 03:47:55;;;;;;;28.02;4.63;;;6.60;99.90;;;;;;5027718;28;20026;-85
2022/01/18 03:50:20;;;;;;;21.08;3.47;;;7.10;99.90;;;;;;5035217;28;20148;-85
2022/01/18 03:52:47;;;;;;;25.92;4.90;;;7.10;99.90;;;;;;5001641;28;20104;-85
2022/01/18 03:55:15;;;;;;;21.13;4.22;;;6.60;99.90;;;;;;5025213;28;20188;-85
2022/01/18 03:57:41;;;;;;;22.23;4.38;;;6.60;99.90;;;;;;5029891;28;20036;-85
2022/01/18 04:00:11;;;;;;;20.40;3.95;;;6.90;99.90;;;;;;5013521;28;20063;-85
2022/01/18 04:02:37;;;;;;;20.67;3.28;;;6.60;99.90;;;;;;5023720;28;20098;-85
2022/01/18 04:05:04;;;;;;;22.08;3.58;;;7.10;99.90;;;;;;5022652;28;20517;-85
2022/01/18 04:07:29;;;;;;;22.70;4.18;;;6.60;99.90;;;;;;5019077;28;20506;-85
2022/01/18 04:09:55;;;;;;;20.25;3.58;;;7.50;99.90;;;;;;5000997;28;20040;-85
2022/01/18 04:12:21;;;;;;;20.08;3.97;;;7.00;99.90;;;;;;5002101;28;20037;-84
2022/01/18 04:14:46;;;;;;;17.67;3.30;;;8.00;99.90;;;;;;5000389;28;20049;-85
2022/01/18 04:27:56;;;;;;;19.45;3.22;;;8.10;99.90;;;;;;5035562;28;20056;-86
2022/01/18 04:30:22;;;;;;;19.00;4.53;;;6.70;99.90;;;;;;5032657;28;20088;-85
2022/01/18 04:32:48;;;;;;;22.88;3.55;;;7.50;99.90;;;;;;5025231;28;20150;-85
2022/01/18 04:35:14;;;;;;;15.68;2.55;;;6.70;99.90;;;;;;5035312;28;20091;-85
2022/01/18 04:37:39;;;;;;;23.45;3.58;;;7.20;99.90;;;;;;5002071;28;20116;-85
2022/01/18 04:40:12;;;;;;;18.98;3.63;;;7.20;99.90;;;;;;4994175;28;20041;-85
2022/01/18 04:43:25;;;;;;;17.63;3.08;;;6.60;99.90;;;;;;5022027;28;20483;-85
2022/01/18 04:48:25;;;;;;;23.70;3.70;;;6.60;99.90;;;;;;5036262;28;20459;-85
2022/01/18 04:50:52;;;;;;;23.17;3.10;;;7.30;99.90;;;;;;5038968;28;20394;-85
2022/01/18 04:53:19;;;;;;;17.13;2.72;;;6.60;99.90;;;;;;5032700;28;20108;-85
2022/01/18 04:55:45;;;;;;;22.77;3.60;;;6.60;99.90;;;;;;5010565;28;20416;-85
2022/01/18 04:58:11;;;;;;;16.90;3.10;;;6.60;99.90;;;;;;5014405;28;20040;-86
2022/01/18 05:00:37;;;;;;;14.13;2.78;;;8.10;99.90;;;;;;5032375;28;20048;-85
2022/01/18 05:03:02;;;;;;;16.58;3.10;;;7.00;99.90;;;;;;5033795;28;20490;-86
2022/01/18 05:05:33;;;;;;;15.50;2.97;;;6.70;99.90;;;;;;5010640;28;20049;-85
2022/01/18 05:08:01;;;;;;;14.85;3.00;;;6.60;99.90;;;;;;5026095;28;20490;-85
2022/01/18 05:10:29;;;;;;;22.27;4.63;;;6.60;99.90;;;;;;5011356;28;20042;-85
2022/01/18 05:12:57;;;;;;;15.60;3.03;;;6.60;99.90;;;;;;5003110;28;20116;-85
2022/01/18 05:18:58;;;;;;;15.93;2.83;;;6.60;99.90;;;;;;5035831;28;20132;-86
2022/01/18 05:23:33;;;;;;;14.23;2.95;;;7.90;99.90;;;;;;5038466;28;20477;-84
2022/01/18 05:25:59;;;;;;;17.65;3.03;;;7.70;99.90;;;;;;5009191;28;20072;-85
2022/01/18 05:28:24;;;;;;;16.55;3.15;;;6.50;99.90;;;;;;5015951;28;20532;-85
2022/01/18 05:30:50;;;;;;;13.40;2.50;;;8.00;99.90;;;;;;5018496;28;20029;-85
2022/01/18 05:33:18;;;;;;;15.45;2.70;;;6.50;99.90;;;;;;5002265;28;20033;-86
2022/01/18 05:35:44;;;;;;;16.83;2.63;;;7.40;99.90;;;;;;5036905;28;20048;-85
2022/01/18 05:38:10;;;;;;;15.48;2.60;;;7.40;99.90;;;;;;5019702;28;20029;-85
2022/01/18 05:40:37;;;;;;;10.77;2.65;;;7.30;99.90;;;;;;5021655;28;20099;-85
2022/01/18 05:43:04;;;;;;;14.43;2.10;;;6.90;99.90;;;;;;5029750;28;20048;-84
2022/01/18 05:45:30;;;;;;;14.55;2.10;;;7.40;99.90;;;;;;5030440;28;20029;-85
2022/01/18 05:47:55;;;;;;;12.82;2.40;;;6.60;99.90;;;;;;5032560;28;20631;-85
2022/01/18 05:50:22;;;;;;;10.30;2.20;;;6.60;99.90;;;;;;5031172;28;20125;-85
2022/01/18 05:52:47;;;;;;;11.43;2.20;;;6.60;99.90;;;;;;5002601;28;20041;-84
2022/01/18 05:55:14;;;;;;;12.73;2.58;;;7.10;99.90;;;;;;4998693;28;20067;-85
2022/01/18 05:57:39;;;;;;;14.63;2.30;;;6.90;99.90;;;;;;5033608;28;20064;-85
2022/01/18 06:00:11;;;;;;;11.43;2.50;;;7.10;99.90;;;;;;5027906;28;20091;-85
2022/01/18 06:08:10;;;;;;;15.00;2.35;;;7.40;99.90;;;;;;5032981;28;20045;-85
2022/01/18 06:10:36;;;;;;;11.13;1.88;;;6.50;99.90;;;;;;5025496;28;20276;-85
2022/01/18 06:13:03;;;;;;;8.13;1.95;;;6.50;99.90;;;;;;5012623;28;21138;-84
2022/01/18 06:15:30;;;;;;;13.52;2.33;;;6.50;99.90;;;;;;5025414;28;20048;-84
2022/01/18 06:17:56;;;;;;;11.77;2.15;;;8.00;99.90;;;;;;5011444;28;20402;-85
2022/01/18 06:20:22;;;;;;;13.20;2.25;;;6.70;99.90;;;;;;5016283;28;20048;-85
2022/01/18 06:22:51;;;;;;;13.77;2.33;;;6.50;99.90;;;;;;5035221;28;20040;-85
2022/01/18 06:25:18;;;;;;;14.80;2.22;;;6.50;99.90;;;;;;4997176;28;20486;-86
2022/01/18 06:27:44;;;;;;;11.23;2.10;;;6.80;99.90;;;;;;5040200;28;20040;-85
2022/01/18 06:30:10;;;;;;;12.07;2.55;;;6.70;99.90;;;;;;5041275;28;20056;-84
2022/01/18 06:32:37;;;;;;;10.82;1.95;;;6.40;99.90;;;;;;5035254;28;20041;-85
2022/01/18 06:35:05;;;;;;;7.82;2.00;;;6.40;99.90;;;;;;5010307;28;20517;-84
2022/01/18 06:37:31;;;;;;;10.80;2.03;;;6.40;99.90;;;;;;5043868;28;20578;-85
2022/01/18 06:39:58;;;;;;;13.50;2.50;;;6.40;99.90;;;;;;5016894;28;20456;-85
2022/01/18 06:42:24;;;;;;;12.68;2.35;;;6.40;99.90;;;;;;5008197;28;20115;-84
2022/01/18 06:44:52;;;;;;;12.07;2.13;;;7.10;99.90;;;;;;5019793;28;20036;-85
2022/01/18 06:47:18;;;;;;;12.57;2.38;;;6.40;99.90;;;;;;5021924;28;20088;-84
2022/01/18 06:49:43;;;;;;;12.45;2.70;;;6.40;99.90;;;;;;5020834;28;20123;-85
2022/01/18 06:52:09;;;;;;;15.25;2.30;;;7.30;99.90;;;;;;5017936;28;20473;-85
2022/01/18 06:54:35;;;;;;;11.80;2.35;;;6.40;99.90;;;;;;5001509;28;20053;-85
2022/01/18 06:57:01;;;;;;;12.63;2.30;;;7.90;99.90;;;;;;5024608;28;20065;-85
2022/01/18 06:59:27;;;;;;;15.10;2.60;;;6.40;99.90;;;;;;5016274;28;20065;-85
2022/01/18 07:01:53;;;;;;;15.27;2.53;;;6.40;99.90;;;;;;5034678;28;20470;-85
2022/01/18 07:04:18;;;;;;;16.80;2.80;;;6.40;99.90;;;;;;5018833;28;20041;-85
2022/01/18 07:06:45;;;;;;;9.90;2.47;;;7.30;99.90;;;;;;5038961;28;20049;-85
2022/01/18 07:09:12;;;;;;;14.77;2.45;;;6.40;99.90;;;;;;5018998;28;20068;-85
2022/01/18 07:11:38;;;;;;;11.93;2.60;;;7.30;99.90;;;;;;5019441;28;20043;-85
2022/01/18 07:14:04;;;;;;;11.35;2.33;;;6.40;99.90;;;;;;5017511;28;20458;-85
2022/01/18 07:16:30;;;;;;;10.88;2.33;;;6.40;99.90;;;;;;5015253;28;20088;-85
2022/01/18 07:18:56;;;;;;;14.57;2.78;;;7.00;99.90;;;;;;5020285;28;20132;-85
2022/01/18 07:21:21;;;;;;;16.13;3.10;;;5.30;99.90;;;;;;5008991;28;20041;-85
2022/01/18 07:23:47;;;;;;;15.90;3.22;;;6.40;99.90;;;;;;5007844;28;20044;-84
2022/01/18 07:26:13;;;;;;;14.38;2.90;;;6.70;99.90;;;;;;4996826;28;20175;-84
2022/01/18 07:28:39;;;;;;;12.02;2.75;;;8.00;99.90;;;;;;5032547;28;20077;-85
2022/01/18 07:31:04;;;;;;;15.38;3.17;;;6.40;99.90;;;;;;4991063;28;20055;-86
2022/01/18 07:33:30;;;;;;;17.73;3.28;;;7.00;99.90;;;;;;5013614;28;20155;-85
2022/01/18 07:35:56;;;;;;;14.90;3.50;;;6.40;99.90;;;;;;5011270;28;20037;-86
2022/01/18 07:38:22;;;;;;;14.68;3.08;;;7.70;99.90;;;;;;5001045;28;20050;-85
2022/01/18 07:40:49;;;;;;;16.50;3.35;;;7.40;99.90;;;;;;5014324;28;20033;-85
2022/01/18 07:43:18;;;;;;;16.45;3.35;;;6.30;99.90;;;;;;5028410;28;20033;-85
2022/01/18 07:45:48;;;;;;;15.93;3.17;;;7.70;99.90;;;;;;5025836;28;20385;-85
2022/01/18 07:48:14;;;;;;;12.63;3.22;;;6.40;99.90;;;;;;5023683;28;20045;-85
2022/01/18 07:50:41;;;;;;;13.75;3.10;;;6.30;99.90;;;;;;5004777;28;20053;-86
2022/01/18 07:53:07;;;;;;;14.75;3.13;;;7.50;99.90;;;;;;5024219;28;20114;-86
2022/01/18 07:55:34;;;;;;;13.68;3.38;;;7.40;99.90;;;;;;5032857;28;20044;-86
2022/01/18 07:58:00;;;;;;;14.48;3.92;;;6.30;99.90;;;;;;5017917;28;20065;-88
2022/01/18 08:00:26;;;;;;;13.98;3.78;;;6.30;99.90;;;;;;5042007;28;20502;-86
2022/01/18 08:02:52;;;;;;;18.05;3.83;;;6.30;99.90;;;;;;5016441;28;20269;-87
2022/01/18 08:05:18;;;;;;;14.15;3.67;;;6.30;99.90;;;;;;5020659;28;20059;-85
2022/01/18 08:07:44;;;;;;;14.55;3.20;;;6.30;99.90;;;;;;4992545;28;20037;-85
2022/01/18 08:10:12;;;;;;;16.38;3.08;;;6.30;99.90;;;;;;4996028;28;20498;-87
2022/01/18 08:12:39;;;;;;;14.20;2.90;;;6.30;99.90;;;;;;5006455;28;20043;-87
2022/01/18 08:15:14;;;;;;;20.73;3.38;;;6.30;99.90;;;;;;5031988;28;20095;-86
2022/01/18 08:17:47;;;;;;;17.33;3.25;;;6.30;99.90;;;;;;5029738;28;20038;-88
2022/01/18 08:20:14;;;;;;;13.70;3.00;;;6.30;99.90;;;;;;5027286;28;20029;-88
2022/01/18 08:22:44;;;;;;;13.20;3.50;;;7.40;99.90;;;;;;5025909;28;20143;-88
2022/01/18 08:25:15;;;;;;;14.15;3.30;;;6.40;99.90;;;;;;5039512;28;20038;-89
2022/01/18 08:27:41;;;;;;;11.45;2.78;;;6.40;99.90;;;;;;5002346;28;20372;-90
2022/01/18 08:30:10;;;;;;;14.95;3.10;;;6.40;99.90;;;;;;5013225;28;20107;-88
2022/01/18 08:32:36;;;;;;;15.27;3.35;;;6.40;99.90;;;;;;5021808;28;20041;-88
2022/01/18 08:35:02;;;;;;;13.73;3.03;;;6.40;99.90;;;;;;5022656;28;20188;-87
2022/01/18 08:37:28;;;;;;;13.55;2.97;;;6.40;99.90;;;;;;5018960;28;20073;-88
2022/01/18 08:39:54;;;;;;;16.30;3.30;;;6.80;99.90;;;;;;5010124;28;20345;-86
2022/01/18 08:42:20;;;;;;;14.95;3.53;;;7.70;99.90;;;;;;5008130;28;20033;-89
2022/01/18 08:44:53;;;;;;;13.65;3.40;;;8.00;99.90;;;;;;5027623;28;20630;-88
2022/01/18 08:47:19;;;;;;;14.93;3.75;;;7.70;99.90;;;;;;4990849;28;20480;-87
2022/01/18 08:49:45;;;;;;;18.25;4.00;;;7.40;99.90;;;;;;5015292;28;20115;-86
2022/01/18 08:52:13;;;;;;;15.05;3.13;;;6.50;99.90;;;;;;5041922;28;20037;-88
2022/01/18 08:54:40;;;;;;;14.65;3.33;;;6.50;99.90;;;;;;5024961;28;20418;-86
2022/01/18 08:57:06;;;;;;;13.75;3.60;;;7.70;99.90;;;;;;5026187;28;20033;-87
2022/01/18 08:59:35;;;;;;;17.15;3.97;;;6.50;99.90;;;;;;5029204;28;20033;-87
2022/01/18 09:02:06;;;;;;;12.57;3.28;;;6.90;99.90;;;;;;5028862;28;20067;-86
2022/01/18 09:04:33;;;;;;;14.40;3.53;;;6.60;99.90;;;;;;5004400;28;20486;-86
2022/01/18 09:07:04;;;;;;;17.13;3.50;;;6.60;99.90;;;;;;5034424;28;20084;-86
2022/01/18 09:09:30;;;;;;;18.73;3.78;;;6.60;99.90;;;;;;5003193;28;20425;-85
2022/01/18 09:11:56;;;;;;;16.30;3.53;;;7.60;99.90;;;;;;5010689;28;20148;-85
2022/01/18 09:14:22;;;;;;;13.77;3.25;;;6.60;99.90;;;;;;5002350;28;20111;-87
2022/01/18 09:16:47;;;;;;;14.70;3.05;;;6.60;99.90;;;;;;5027257;28;20048;-85
2022/01/18 09:19:13;;;;;;;15.43;3.20;;;7.10;99.90;;;;;;5022672;28;20467;-87
2022/01/18 09:21:39;;;;;;;13.32;3.08;;;6.70;99.90;;;;;;5011742;28;20518;-87
2022/01/18 09:24:05;;;;;;;16.65;3.60;;;6.70;99.90;;;;;;5005214;28;20427;-88
2022/01/18 09:26:31;;;;;;;13.90;3.80;;;6.70;99.90;;;;;;5025466;28;20040;-86
2022/01/18 09:28:57;;;;;;;14.73;3.45;;;6.70;99.90;;;;;;5008088;28;20040;-86
2022/01/18 09:31:22;;;;;;;12.20;3.08;;;7.60;99.90;;;;;;5014005;28;20029;-85
2022/01/18 09:33:48;;;;;;;16.55;3.70;;;6.80;99.90;;;;;;5005945;28;20044;-87
2022/01/18 09:36:14;;;;;;;10.80;2.63;;;8.20;99.90;;;;;;5005923;28;20483;-85
2022/01/18 09:38:40;;;;;;;10.88;2.92;;;6.80;99.90;;;;;;5037703;28;20514;-86
2022/01/18 09:41:10;;;;;;;13.88;3.10;;;6.80;99.90;;;;;;5036865;28;20600;-88
2022/01/18 09:43:38;;;;;;;10.52;3.05;;;6.80;99.90;;;;;;5007116;28;20260;-87
2022/01/18 09:46:05;;;;;;;11.70;3.10;;;6.90;99.90;;;;;;5001311;28;20545;-86
2022/01/18 09:48:31;;;;;;;14.65;3.28;;;6.90;99.90;;;;;;5030847;28;20218;-88
2022/01/18 09:50:59;;;;;;;12.93;2.92;;;7.80;99.90;;;;;;5006342;28;20413;-88
2022/01/18 09:53:26;;;;;;;14.50;3.30;;;7.00;99.90;;;;;;5020647;28;20188;-85
2022/01/18 09:55:53;;;;;;;16.38;3.28;;;9.10;99.90;;;;;;5023354;28;20044;-86
2022/01/18 09:58:20;;;;;;;13.93;3.00;;;7.10;99.90;;;;;;4996659;28;20128;-86
2022/01/18 10:00:46;;;;;;;16.15;3.47;;;8.50;99.90;;;;;;5030456;28;20423;-86
2022/01/18 10:03:45;;;;;;;12.80;2.92;;;7.20;99.90;;;;;;5036928;28;20042;-86
2022/01/18 10:06:11;;;;;;;12.63;2.70;;;7.30;99.90;;;;;;4997721;28;20455;-86
2022/01/18 10:08:40;;;;;;;16.63;3.33;;;7.30;99.90;;;;;;5031825;28;20034;-88
2022/01/18 10:11:14;;;;;;;16.58;3.45;;;7.30;99.90;;;;;;5017566;28;20493;-87
2022/01/18 10:13:41;;;;;;;11.43;3.00;;;7.30;99.90;;;;;;5030436;28;20045;-87
2022/01/18 10:16:12;;;;;;;14.90;2.70;;;8.50;99.90;;;;;;5029691;28;20438;-87
2022/01/18 10:18:50;;;;;;;14.52;3.00;;;7.30;99.90;;;;;;5018823;28;20085;-86
2022/01/18 10:21:40;;;;;;;12.45;3.10;;;7.40;99.90;;;;;;5020826;28;20111;-86
2022/01/18 10:24:22;;;;;;;12.60;2.72;;;7.40;99.90;;;;;;5016952;28;20041;-87
2022/01/18 10:26:50;;;;;;;14.20;2.75;;;7.40;99.90;;;;;;5022087;28;20046;-86
2022/01/18 10:29:19;;;;;;;18.42;3.15;;;7.80;99.90;;;;;;5008319;28;20095;-86
2022/01/18 10:34:26;;;;;;;11.80;2.97;;;7.50;99.90;;;;;;5036116;28;20264;-88
2022/01/18 10:36:54;;;;;;;16.98;3.50;;;7.50;99.90;;;;;;5025310;28;20056;-86
2022/01/18 10:39:24;;;;;;;13.95;3.70;;;7.50;99.90;;;;;;5039396;28;20087;-86
2022/01/18 10:41:51;;;;;;;14.57;3.63;;;7.50;99.90;;;;;;5020482;28;20030;-87
2022/01/18 10:44:18;;;;;;;17.23;3.50;;;7.50;99.90;;;;;;5021655;28;20041;-88
2022/01/18 10:46:48;;;;;;;16.70;3.58;;;7.60;99.90;;;;;;5005272;28;20053;-87
2022/01/18 10:49:39;;;;;;;12.55;3.10;;;7.70;99.90;;;;;;5029772;28;20048;-86
2022/01/18 10:52:11;;;;;;;15.18;3.50;;;7.70;99.90;;;;;;5020355;28;20037;-86
2022/01/18 10:54:48;;;;;;;12.77;2.90;;;7.70;99.90;;;;;;5011553;28;20287;-86
2022/01/18 10:57:21;;;;;;;14.32;3.08;;;7.70;99.90;;;;;;5040135;28;20037;-86
2022/01/18 10:59:48;;;;;;;13.68;3.13;;;8.80;99.90;;;;;;5020525;28;20505;-86
2022/01/18 11:02:20;;;;;;;13.88;3.13;;;7.70;99.90;;;;;;5007633;28;20045;-87
2022/01/18 11:04:51;;;;;;;17.58;3.72;;;7.60;99.90;;;;;;5018315;28;20041;-87
2022/01/18 11:07:20;;;;;;;13.18;4.07;;;7.60;99.90;;;;;;5020264;28;20112;-88
2022/01/18 11:09:46;;;;;;;15.35;3.90;;;8.00;99.90;;;;;;5018725;28;20179;-88
2022/01/18 11:12:12;;;;;;;16.17;4.25;;;7.60;99.90;;;;;;4995419;28;20092;-88
2022/01/18 11:14:49;;;;;;;16.73;4.30;;;7.80;99.90;;;;;;5001988;28;20107;-87
2022/01/18 11:17:25;;;;;;;14.52;4.28;;;7.60;99.90;;;;;;5033521;28;20127;-88
2022/01/18 11:19:54;;;;;;;13.27;4.20;;;7.70;99.90;;;;;;5033331;28;20063;-87
2022/01/18 11:22:24;;;;;;;18.15;3.95;;;7.60;99.90;;;;;;5029402;28;20514;-87
2022/01/18 11:24:50;;;;;;;17.42;4.40;;;7.70;99.90;;;;;;5020665;28;20128;-88
2022/01/18 11:27:18;;;;;;;17.10;4.18;;;7.60;99.90;;;;;;5009370;28;20049;-88
2022/01/18 11:29:49;;;;;;;16.10;4.60;;;7.60;99.90;;;;;;5003425;28;20043;-87
2022/01/18 11:32:17;;;;;;;13.75;3.90;;;9.20;99.90;;;;;;5038542;28;20040;-88
2022/01/18 11:35:01;;;;;;;15.85;3.47;;;7.60;99.90;;;;;;5005422;28;20080;-87
2022/01/18 11:37:54;;;;;;;17.20;4.13;;;7.60;99.90;;;;;;5028109;28;20041;-88
2022/01/18 11:40:20;;;;;;;16.48;3.92;;;7.60;99.90;;;;;;5017044;28;20546;-88
2022/01/18 11:42:59;;;;;;;18.40;4.20;;;7.60;99.90;;;;;;5016133;28;20073;-87
2022/01/18 11:45:25;;;;;;;19.13;4.47;;;7.70;99.90;;;;;;5037133;28;20553;-87
2022/01/18 11:48:19;;;;;;;18.63;4.00;;;9.30;99.90;;;;;;5037278;28;20037;-87
2022/01/18 11:50:47;;;;;;;13.75;3.85;;;7.70;99.90;;;;;;5028863;28;20037;-88
2022/01/18 11:53:24;;;;;;;14.23;3.90;;;7.70;99.90;;;;;;5039929;28;20098;-88
2022/01/18 11:56:01;;;;;;;12.23;3.08;;;7.70;99.90;;;;;;5031962;28;20034;-88
2022/01/18 11:58:28;;;;;;;17.15;3.90;;;7.70;99.90;;;;;;5028090;28;20047;-87
2022/01/18 12:01:00;;;;;;;17.67;4.53;;;7.70;99.90;;;;;;5032744;28;20490;-88
2022/01/18 12:03:42;;;;;;;16.23;3.85;;;8.00;99.90;;;;;;5026934;28;20047;-88
2022/01/18 12:06:09;;;;;;;13.70;3.58;;;8.00;99.90;;;;;;5025240;28;20468;-86
2022/01/18 12:08:38;;;;;;;17.77;3.85;;;7.80;99.90;;;;;;5020971;28;20041;-87
2022/01/18 12:11:28;;;;;;;13.60;3.35;;;7.80;99.90;;;;;;5036848;28;20037;-86
2022/01/18 12:14:00;;;;;;;17.27;3.10;;;7.80;99.90;;;;;;5035938;28;20214;-88
2022/01/18 12:16:29;;;;;;;14.13;2.92;;;7.80;99.90;;;;;;5006348;28;20033;-88
2022/01/18 12:18:56;;;;;;;14.45;3.28;;;7.70;99.90;;;;;;5012128;28;20378;-88
2022/01/18 12:21:27;;;;;;;16.33;3.80;;;7.70;99.90;;;;;;5020939;28;20038;-88
2022/01/18 12:23:56;;;;;;;12.07;2.78;;;7.70;99.90;;;;;;5022614;28;20112;-88
2022/01/18 12:26:37;;;;;;;12.57;3.13;;;7.70;99.90;;;;;;5024766;28;20041;-86
2022/01/18 12:32:06;;;;;;;14.85;3.25;;;7.60;99.90;;;;;;5035932;28;20441;-87
2022/01/18 12:34:45;;;;;;;12.55;3.10;;;7.60;99.90;;;;;;5023027;28;20050;-86
2022/01/18 12:37:11;;;;;;;10.65;2.90;;;7.60;99.90;;;;;;5018774;28;20524;-86
2022/01/18 12:40:08;;;;;;;11.15;2.83;;;8.90;99.90;;;;;;5022490;28;20042;-87
2022/01/18 12:45:14;;;;;;;14.48;3.63;;;7.50;99.90;;;;;;5046155;28;20045;-86
2022/01/18 12:47:49;;;;;;;12.77;3.05;;;7.50;99.90;;;;;;5029992;28;20057;-86
2022/01/18 12:50:18;;;;;;;11.25;2.70;;;7.50;99.90;;;;;;5034528;28;20128;-88
2022/01/18 12:52:54;;;;;;;14.65;3.55;;;7.50;99.90;;;;;;5019723;28;20048;-86
2022/01/18 12:55:45;;;;;;;10.70;3.22;;;7.50;99.90;;;;;;5045640;28;20414;-85
2022/01/18 12:58:28;;;;;;;9.93;2.92;;;7.40;99.90;;;;;;5025663;28;20063;-87
2022/01/18 13:00:59;;;;;;;15.88;3.63;;;7.40;99.90;;;;;;5044487;28;20466;-85
2022/01/18 13:03:36;;;;;;;14.05;3.90;;;7.40;99.90;;;;;;5028137;28;20060;-85
2022/01/18 13:06:09;;;;;;;15.45;3.70;;;7.40;99.90;;;;;;5041005;28;20033;-86
2022/01/18 13:09:07;;;;;;;14.18;4.05;;;7.50;99.90;;;;;;5022394;28;20036;-87
2022/01/18 13:11:38;;;;;;;14.70;4.28;;;8.40;99.90;;;;;;4996727;28;20187;-87
2022/01/18 13:14:13;;;;;;;15.70;3.92;;;8.10;99.90;;;;;;5023444;28;20049;-85
2022/01/18 13:27:15;;;;;;;15.18;4.50;;;8.00;99.90;;;;;;5035336;28;20105;-86
2022/01/18 13:29:42;;;;;;;16.80;5.03;;;7.40;99.90;;;;;;5034535;28;20091;-87
2022/01/18 13:32:18;;;;;;;20.30;5.15;;;7.40;99.90;;;;;;4993443;28;20048;-87
2022/01/18 13:34:49;;;;;;;15.20;5.00;;;7.40;99.90;;;;;;5035851;28;20048;-85
2022/01/18 13:37:23;;;;;;;16.00;4.85;;;7.40;99.90;;;;;;5036478;28;20036;-85
2022/01/18 13:39:57;;;;;;;17.42;5.22;;;7.50;99.90;;;;;;5024266;28;20040;-87
2022/01/18 13:42:31;;;;;;;17.60;5.10;;;7.50;99.90;;;;;;5037571;28;20045;-86
2022/01/18 13:45:23;;;;;;;16.15;4.90;;;7.60;99.90;;;;;;5021243;28;20067;-86
2022/01/18 13:47:53;;;;;;;20.30;5.05;;;7.70;99.90;;;;;;5026972;28;20038;-86
2022/01/18 13:50:40;;;;;;;14.45;4.80;;;7.80;99.90;;;;;;5045083;28;20110;-85
2022/01/18 13:53:13;;;;;;;13.77;4.80;;;7.80;99.90;;;;;;5024925;28;20068;-86
2022/01/18 13:55:43;;;;;;;;;;;7.80;99.90;;;;;;5036139;28;20094;-86
2022/01/18 13:58:09;;;;;;;16.10;4.90;;;7.80;99.90;;;;;;5024277;28;19977;-85
2022/01/18 14:00:35;;;;;;;14.38;5.18;;;9.30;99.90;;;;;;5025859;28;20497;-86
2022/01/18 14:03:01;;;;;;;15.98;4.68;;;8.10;99.90;;;;;;5043143;28;20041;-87
2022/01/18 14:05:27;;;;;;;21.70;5.20;;;8.10;99.90;;;;;;5010871;28;20528;-86
2022/01/18 14:08:06;;;;;;;16.98;4.65;;;8.40;99.90;;;;;;5005437;28;20377;-87
2022/01/18 14:10:32;;;;;;;18.27;5.60;;;8.50;99.90;;;;;;5037635;28;20060;-87
2022/01/18 14:12:58;;;;;;;15.15;4.72;;;9.30;99.90;;;;;;5017294;28;20115;-85
2022/01/18 14:15:41;;;;;;;13.63;5.28;;;10.00;99.90;;;;;;5018232;28;20106;-87
2022/01/18 14:18:08;;;;;;;15.20;5.28;;;9.30;99.90;;;;;;5030235;28;20040;-87